This is the latest recevied weather packets stored in our database for station/object SM2FXT-13. If no packets are shown the sender has not sent any weather packets the latest 10 day(s).
| Time | Temp. | Humidity | Pressure | Rain* | Wind** | Luminosity | Snow |
|---|---|---|---|---|---|---|---|
| 1778092203 | 6.67° C | 71% | 1010 hPa | 0 mm | - | - | - |
| 1778082003 | 8.33° C | 66% | 1009 hPa | 0 mm | - | - | - |
| 1778079003 | 12.22° C | 57% | 1008.4 hPa | 0 mm | - | - | - |
| 1778078403 | 11.11° C | 64% | 1008.4 hPa | 0 mm | - | - | - |
| 1778077803 | 8.89° C | 65% | 1008.5 hPa | 0 mm | - | - | - |
| 1778072404 | 9.44° C | 67% | 1008.4 hPa | 0 mm | - | - | - |
| 1778069403 | 11.11° C | 62% | 1008 hPa | 0 mm | - | - | - |
| 1778060403 | 12.78° C | 46% | 1006.9 hPa | 0 mm | - | - | - |
| 1778056804 | 9.44° C | 57% | 1006.6 hPa | 0 mm | - | - | - |
| 1778050804 | 8.33° C | 59% | 1005.5 hPa | 0 mm | - | - | - |
| 1778049603 | 8.89° C | 57% | 1005.2 hPa | 0 mm | - | - | - |
| 1778040604 | 2.22° C | 78% | 1003.9 hPa | 0 mm | - | - | - |
| 1778038803 | 2.22° C | 78% | 1003.7 hPa | 0 mm | - | - | - |
| 1778038204 | 2.22° C | 78% | 1003.7 hPa | 0 mm | - | - | - |
| 1778035804 | 1.67° C | 78% | 1003.3 hPa | 0 mm | - | - | - |
| 1778026804 | 1.67° C | 73% | 1002.5 hPa | 0 mm | - | - | - |
| 1778025604 | 1.67° C | 73% | 1002.3 hPa | 0 mm | - | - | - |
| 1778024404 | 1.67° C | 73% | 1002.3 hPa | 0 mm | - | - | - |
| 1778023805 | 1.67° C | 74% | 1002.2 hPa | 0 mm | - | - | - |
| 1778015403 | 2.22° C | 68% | 1001.8 hPa | 0 mm | - | - | - |
| 1778014203 | 2.78° C | 64% | 1001.7 hPa | 0 mm | - | - | - |
| 1778012403 | 4.44° C | 59% | 1001.4 hPa | 0 mm | - | - | - |
| 1778002802 | 8.33° C | 41% | 1000.2 hPa | 0 mm | - | - | - |
| 1777989603 | 12.78° C | 28% | 998.7 hPa | 0.25 mm | - | - | - |
| 1777984803 | 13.33° C | 32% | 998 hPa | 0 mm | - | - | - |
* Rain latest hour (hover to see other rain measurements)
** Current wind speed in m/s (hover to see current wind gust speed)